createdAt,value
2018-12-18T00:00:41.626Z,101709.27
2018-12-18T00:03:48.569Z,101706.33
2018-12-18T00:06:55.318Z,101703.36
2018-12-18T00:10:01.966Z,101700.40
2018-12-18T00:13:31.618Z,101697.00
2018-12-18T00:16:38.950Z,101700.80
2018-12-18T00:19:45.681Z,101705.45
2018-12-18T00:23:01.266Z,101704.17
2018-12-18T00:26:07.869Z,101705.44
2018-12-18T00:29:38.062Z,101711.78
2018-12-18T00:32:45.281Z,101716.88
2018-12-18T00:35:51.999Z,101713.91
2018-12-18T00:38:58.727Z,101711.37
2018-12-18T00:42:17.906Z,101707.56
2018-12-18T00:45:24.549Z,101718.55
2018-12-18T00:48:43.453Z,101721.92
2018-12-18T00:51:50.850Z,101720.65
2018-12-18T00:54:57.542Z,101709.22
2018-12-18T00:58:17.154Z,101713.47
2018-12-18T01:01:39.322Z,101718.13
2018-12-18T01:04:48.158Z,101714.31
2018-12-18T01:07:54.805Z,101712.61
2018-12-18T01:11:11.865Z,101722.75
2018-12-18T01:14:20.381Z,101718.50
2018-12-18T01:17:26.994Z,101719.34
2018-12-18T01:20:45.974Z,101716.83
2018-12-18T01:23:52.698Z,101726.55
2018-12-18T01:26:59.444Z,101723.58
2018-12-18T01:30:18.658Z,101729.91
2018-12-18T01:33:25.290Z,101729.06
2018-12-18T01:36:44.151Z,101729.08
2018-12-18T01:39:50.868Z,101735.84
2018-12-18T01:42:58.174Z,101735.41
2018-12-18T01:46:04.922Z,101741.75
2018-12-18T01:49:29.613Z,101737.08
2018-12-18T01:52:36.263Z,101738.77
2018-12-18T01:55:55.113Z,101738.78
2018-12-18T01:59:01.860Z,101735.37
2018-12-18T02:02:09.145Z,101739.19
2018-12-18T02:05:15.797Z,101747.22
2018-12-18T02:08:35.034Z,101747.21
2018-12-18T02:11:41.671Z,101749.31
2018-12-18T02:15:00.521Z,101748.46
2018-12-18T02:18:07.277Z,101747.63
2018-12-18T02:21:13.919Z,101750.59
2018-12-18T02:24:20.694Z,101751.85
2018-12-18T02:27:27.467Z,101751.00
2018-12-18T02:30:34.458Z,101750.55
2018-12-18T02:33:53.289Z,101747.15
2018-12-18T02:37:00.151Z,101747.57
2018-12-18T02:40:07.503Z,101749.70
2018-12-18T02:43:14.904Z,101750.11
2018-12-18T02:46:21.767Z,101751.80
2018-12-18T02:49:28.399Z,101757.30
2018-12-18T02:52:35.047Z,101754.31
2018-12-18T02:55:41.678Z,101753.03
2018-12-18T02:59:00.465Z,101771.27
2018-12-18T03:02:08.159Z,101768.27
2018-12-18T03:05:27.536Z,101774.23
2018-12-18T03:08:34.273Z,101771.67
2018-12-18T03:11:41.018Z,101772.50
2018-12-18T03:15:02.205Z,101775.03
2018-12-18T03:18:08.924Z,101770.78
2018-12-18T03:21:17.129Z,101779.28
2018-12-18T03:24:36.479Z,101778.84
2018-12-18T03:27:43.323Z,101772.05
2018-12-18T03:30:49.979Z,101770.77
2018-12-18T03:34:09.161Z,101773.29
2018-12-18T03:37:15.813Z,101771.58
2018-12-18T03:40:23.191Z,101770.30
2018-12-18T03:43:30.061Z,101770.74
2018-12-18T03:46:49.389Z,101771.98
2018-12-18T03:49:56.021Z,101766.89
2018-12-18T03:53:02.767Z,101773.23
2018-12-18T03:56:21.767Z,101780.84
2018-12-18T03:59:29.059Z,101775.75
2018-12-18T04:02:35.806Z,101784.67
2018-12-18T04:05:43.138Z,101779.15
2018-12-18T04:08:50.001Z,101780.41
2018-12-18T04:12:02.226Z,101781.66
2018-12-18T04:15:09.096Z,101778.27
2018-12-18T04:18:28.374Z,101775.28
2018-12-18T04:21:35.006Z,101779.52
2018-12-18T04:24:41.648Z,101778.22
2018-12-18T04:28:00.881Z,101777.83
2018-12-18T04:31:07.613Z,101785.02
2018-12-18T04:34:14.245Z,101785.44
2018-12-18T04:37:33.506Z,101791.35
2018-12-18T04:40:40.250Z,101795.58
2018-12-18T04:43:46.887Z,101799.39
2018-12-18T04:46:53.549Z,101792.59
2018-12-18T04:50:00.294Z,101791.73
2018-12-18T04:53:06.922Z,101799.37
2018-12-18T04:56:26.231Z,101799.37
2018-12-18T04:59:33.276Z,101798.94
2018-12-18T05:02:40.009Z,101795.12
2018-12-18T05:05:58.941Z,101795.95
2018-12-18T05:09:08.753Z,101801.47
2018-12-18T05:12:27.589Z,101804.00
2018-12-18T05:15:34.587Z,101802.70
2018-12-18T05:18:41.220Z,101804.81
2018-12-18T05:22:00.297Z,101804.38
2018-12-18T05:25:07.461Z,101817.55
2018-12-18T05:28:16.198Z,101821.78
2018-12-18T05:31:23.338Z,101813.72
2018-12-18T05:34:29.982Z,101817.95
2018-12-18T05:37:48.982Z,101815.39
2018-12-18T05:40:56.185Z,101811.99
2018-12-18T05:44:03.818Z,101819.63
2018-12-18T05:47:10.459Z,101823.45
2018-12-18T05:50:18.191Z,101822.16
2018-12-18T05:53:25.438Z,101820.45
2018-12-18T05:56:32.494Z,101827.66
2018-12-18T05:59:39.143Z,101831.05
2018-12-18T06:02:45.887Z,101834.44
2018-12-18T06:06:04.996Z,101832.33
2018-12-18T06:09:11.918Z,101835.28
2018-12-18T06:12:18.883Z,101834.87
2018-12-18T06:15:25.525Z,101839.10
2018-12-18T06:18:32.261Z,101845.47
2018-12-18T06:21:38.920Z,101842.92
2018-12-18T06:24:45.583Z,101841.64
2018-12-18T06:27:52.289Z,101839.95
2018-12-18T06:30:59.030Z,101845.05
2018-12-18T06:34:05.671Z,101848.03
2018-12-18T06:37:24.914Z,101849.70
2018-12-18T06:40:31.646Z,101850.13
2018-12-18T06:43:38.386Z,101856.94
2018-12-18T06:46:45.009Z,101859.88
2018-12-18T06:49:51.668Z,101858.61
2018-12-18T06:52:58.603Z,101861.58
2018-12-18T06:56:19.635Z,101871.78
2018-12-18T06:59:26.261Z,101870.94
2018-12-18T07:02:33.234Z,101873.46
2018-12-18T07:05:52.320Z,101866.24
2018-12-18T07:08:58.982Z,101868.39
2018-12-18T07:12:17.773Z,101860.73
2018-12-18T07:15:24.401Z,101873.87
2018-12-18T07:18:31.134Z,101874.73
2018-12-18T07:21:37.870Z,101871.33
2018-12-18T07:24:44.541Z,101878.55
2018-12-18T07:27:51.277Z,101878.55
2018-12-18T07:30:58.237Z,101877.28
2018-12-18T07:34:04.866Z,101881.53
2018-12-18T07:37:11.615Z,101887.05
2018-12-18T07:40:18.606Z,101890.86
2018-12-18T07:43:37.781Z,101891.30
2018-12-18T07:46:44.373Z,101892.99
2018-12-18T07:49:51.909Z,101892.99
2018-12-18T07:52:58.546Z,101900.63
2018-12-18T07:56:17.641Z,101906.99
2018-12-18T07:59:23.630Z,101906.58
2018-12-18T08:02:30.259Z,101905.30
2018-12-18T08:05:36.986Z,101910.81
2018-12-18T08:08:44.031Z,101918.02
2018-12-18T08:12:03.134Z,101914.63
2018-12-18T08:15:09.757Z,101910.38
2018-12-18T08:18:28.589Z,101921.41
2018-12-18T08:21:35.729Z,101912.92
2018-12-18T08:24:42.554Z,101920.56
2018-12-18T08:27:49.198Z,101920.13
2018-12-18T08:30:55.930Z,101920.13
2018-12-18T08:34:02.758Z,101914.63
2018-12-18T08:37:09.704Z,101912.91
2018-12-18T08:40:20.343Z,101918.86
2018-12-18T08:43:27.193Z,101927.34
2018-12-18T08:46:34.813Z,101926.06
2018-12-18T08:49:41.453Z,101926.91
2018-12-18T08:53:04.695Z,101928.19
2018-12-18T08:56:23.967Z,101932.03
2018-12-18T08:59:30.706Z,101927.78
2018-12-18T09:02:37.434Z,101928.20
2018-12-18T09:05:56.646Z,101928.63
2018-12-18T09:09:04.923Z,101930.73
2018-12-18T09:12:16.610Z,101933.70
2018-12-18T09:15:28.461Z,101938.36
2018-12-18T09:18:35.075Z,101931.98
2018-12-18T09:21:41.813Z,101932.42
2018-12-18T09:25:02.557Z,101928.59
2018-12-18T09:28:09.322Z,101917.98
2018-12-18T09:31:16.061Z,101915.02
2018-12-18T09:34:36.185Z,101923.48
2018-12-18T09:37:43.398Z,101923.05
2018-12-18T09:40:55.486Z,101915.42
2018-12-18T09:44:10.709Z,101905.22
2018-12-18T09:47:17.467Z,101912.43
2018-12-18T09:50:24.213Z,101906.08
2018-12-18T09:53:43.306Z,101898.02
2018-12-18T09:56:52.962Z,101890.81
2018-12-18T10:00:19.893Z,101891.64
2018-12-18T10:03:26.531Z,101883.14
2018-12-18T10:06:45.342Z,101886.09
2018-12-18T10:09:51.957Z,101884.82
2018-12-18T10:12:57.967Z,101871.23
2018-12-18T10:16:05.001Z,101869.10
2018-12-18T10:19:11.740Z,101867.38
2018-12-18T10:22:30.933Z,101863.98
2018-12-18T10:25:37.671Z,101867.81
2018-12-18T10:28:44.305Z,101869.94
2018-12-18T10:31:53.273Z,101865.25
2018-12-18T10:35:14.893Z,101866.09
2018-12-18T10:38:21.534Z,101852.06
2018-12-18T10:41:28.274Z,101845.68
2018-12-18T10:44:48.702Z,101843.55
2018-12-18T10:47:55.754Z,101841.00
2018-12-18T10:51:03.043Z,101839.30
2018-12-18T10:54:09.671Z,101837.58
2018-12-18T10:57:28.609Z,101839.25
2018-12-18T11:00:40.720Z,101838.39
2018-12-18T11:03:47.695Z,101840.92
2018-12-18T11:06:54.290Z,101843.89
2018-12-18T11:10:01.222Z,101841.77
2018-12-18T11:13:17.920Z,101840.88
2018-12-18T11:16:25.530Z,101840.87
2018-12-18T11:19:31.556Z,101842.55
2018-12-18T11:22:38.774Z,101840.42
2018-12-18T11:25:45.413Z,101834.47
2018-12-18T11:29:11.416Z,101841.66
2018-12-18T11:32:33.067Z,101831.48
2018-12-18T11:35:37.398Z,101828.49
2018-12-18T11:38:44.124Z,101832.31
2018-12-18T11:41:50.809Z,101823.37
2018-12-18T11:45:10.170Z,101814.88
2018-12-18T11:48:30.955Z,101815.70
2018-12-18T11:51:55.138Z,101817.38
2018-12-18T11:55:01.756Z,101816.09
2018-12-18T11:58:20.593Z,101811.84
2018-12-18T12:01:27.233Z,101816.52
2018-12-18T12:04:46.038Z,101804.59
2018-12-18T12:07:52.671Z,101802.46
2018-12-18T12:11:11.554Z,101791.41
2018-12-18T12:14:22.984Z,101786.29
2018-12-18T12:17:35.761Z,101791.37
2018-12-18T12:20:42.582Z,101787.52
2018-12-18T12:23:49.283Z,101784.98
2018-12-18T12:27:10.061Z,101776.06
2018-12-18T12:30:16.682Z,101769.25
2018-12-18T12:33:23.405Z,101765.83
2018-12-18T12:36:42.206Z,101764.12
2018-12-18T12:39:48.833Z,101757.73
2018-12-18T12:42:56.092Z,101761.97
2018-12-18T12:46:03.545Z,101764.09
2018-12-18T12:49:10.183Z,101767.45
2018-12-18T12:52:37.262Z,101767.44
2018-12-18T12:55:43.898Z,101760.23
2018-12-18T12:58:50.972Z,101757.68
2018-12-18T13:02:06.867Z,101754.27
2018-12-18T13:05:26.954Z,101754.67
2018-12-18T13:08:33.793Z,101753.81
2018-12-18T13:11:40.435Z,101752.52
2018-12-18T13:14:59.650Z,101747.85
2018-12-18T13:18:06.370Z,101747.83
2018-12-18T13:21:13.121Z,101757.16
2018-12-18T13:24:32.304Z,101760.98
2018-12-18T13:27:39.275Z,101769.89
2018-12-18T13:30:46.259Z,101754.18
2018-12-18T13:33:52.921Z,101757.57
2018-12-18T13:37:12.293Z,101755.87
2018-12-18T13:40:18.934Z,101750.77
2018-12-18T13:43:25.790Z,101738.86
2018-12-18T13:46:44.991Z,101726.12
2018-12-18T13:49:51.621Z,101728.67
2018-12-18T13:52:58.358Z,101715.05
2018-12-18T13:56:04.981Z,101707.00
2018-12-18T13:59:11.617Z,101702.33
2018-12-18T14:02:30.525Z,101709.55
2018-12-18T14:05:37.258Z,101709.14
2018-12-18T14:08:43.887Z,101709.98
2018-12-18T14:12:03.206Z,101707.02
2018-12-18T14:15:10.191Z,101705.34
2018-12-18T14:18:16.816Z,101707.02
2018-12-18T14:21:35.980Z,101713.41
2018-12-18T14:24:42.722Z,101717.67
2018-12-18T14:27:49.388Z,101713.44
2018-12-18T14:31:14.182Z,101706.23
2018-12-18T14:34:20.840Z,101703.29
2018-12-18T14:37:27.575Z,101702.88
2018-12-18T14:40:34.262Z,101704.17
2018-12-18T14:43:42.345Z,101704.65
2018-12-18T14:47:01.309Z,101706.38
2018-12-18T14:50:09.287Z,101711.50
2018-12-18T14:53:30.525Z,101711.55
2018-12-18T14:56:37.153Z,101713.73
2018-12-18T14:59:55.907Z,101715.86
2018-12-18T15:03:02.869Z,101721.42
2018-12-18T15:06:09.504Z,101717.65
2018-12-18T15:09:28.630Z,101722.77
2018-12-18T15:12:37.267Z,101722.78
2018-12-18T15:15:44.426Z,101721.09
2018-12-18T15:18:51.111Z,101721.54
2018-12-18T15:21:58.188Z,101724.11
2018-12-18T15:25:17.336Z,101716.91
2018-12-18T15:28:23.976Z,101706.31
2018-12-18T15:31:30.703Z,101714.39
2018-12-18T15:34:37.457Z,101713.98
2018-12-18T15:37:44.341Z,101705.92
2018-12-18T15:40:51.078Z,101707.63
2018-12-18T15:44:10.338Z,101699.13
2018-12-18T15:47:17.090Z,101701.70
2018-12-18T15:50:24.140Z,101694.49
2018-12-18T15:53:43.081Z,101707.25
2018-12-18T15:56:49.897Z,101700.00
2018-12-18T15:59:56.529Z,101689.83
2018-12-18T16:03:17.102Z,101689.38
2018-12-18T16:06:24.103Z,101689.42
2018-12-18T16:09:43.033Z,101698.78
2018-12-18T16:12:49.666Z,101697.94
2018-12-18T16:15:57.062Z,101700.48
2018-12-18T16:19:03.698Z,101693.69
2018-12-18T16:22:22.978Z,101692.81
2018-12-18T16:25:29.617Z,101700.03
2018-12-18T16:28:37.081Z,101695.80
2018-12-18T16:31:43.710Z,101703.48
2018-12-18T16:35:03.213Z,101707.30
2018-12-18T16:38:10.180Z,101713.26
2018-12-18T16:41:17.146Z,101704.74
2018-12-18T16:44:23.936Z,101704.77
2018-12-18T16:47:30.767Z,101690.78
2018-12-18T16:50:53.098Z,101695.88
2018-12-18T16:54:00.403Z,101680.57
2018-12-18T16:57:13.073Z,101683.98
2018-12-18T17:00:15.748Z,101683.12
2018-12-18T17:03:34.618Z,101674.20
2018-12-18T17:06:41.313Z,101673.81
2018-12-18T17:09:48.108Z,101659.79
2018-12-18T17:13:15.743Z,101660.66
2018-12-18T17:16:29.466Z,101667.02
2018-12-18T17:19:42.025Z,101673.38
2018-12-18T17:22:58.829Z,101661.52
2018-12-18T17:26:15.835Z,101658.53
2018-12-18T17:29:30.590Z,101649.20
2018-12-18T17:32:46.193Z,101647.47
2018-12-18T17:36:02.981Z,101644.55
2018-12-18T17:39:18.682Z,101647.55
2018-12-18T17:42:47.959Z,101637.78
2018-12-18T17:46:02.611Z,101636.95
2018-12-18T17:49:30.810Z,101641.62
2018-12-18T17:52:51.701Z,101633.19
2018-12-18T17:55:58.334Z,101637.09
2018-12-18T17:59:04.966Z,101645.55
2018-12-18T18:02:11.710Z,101642.63
2018-12-18T18:05:18.791Z,101646.49
2018-12-18T18:08:25.426Z,101654.59
2018-12-18T18:11:32.466Z,101646.57
2018-12-18T18:14:51.555Z,101655.52
2018-12-18T18:17:58.289Z,101652.56
2018-12-18T18:21:04.974Z,101650.48
2018-12-18T18:24:11.595Z,101657.31
2018-12-18T18:27:18.658Z,101652.25
2018-12-18T18:30:25.287Z,101654.42
2018-12-18T18:33:44.277Z,101653.16
2018-12-18T18:36:51.323Z,101651.08
2018-12-18T18:39:58.057Z,101645.62
2018-12-18T18:43:19.069Z,101643.96
2018-12-18T18:46:25.873Z,101659.28
2018-12-18T18:49:32.602Z,101663.11
2018-12-18T18:52:51.676Z,101656.79
2018-12-18T18:55:58.314Z,101653.86
2018-12-18T18:59:05.476Z,101646.68
2018-12-18T19:02:25.679Z,101644.99
2018-12-18T19:05:32.431Z,101644.99
2018-12-18T19:08:40.071Z,101639.08
2018-12-18T19:11:46.718Z,101633.63
2018-12-18T19:15:06.731Z,101625.23
2018-12-18T19:18:25.846Z,101620.55
2018-12-18T19:21:32.492Z,101607.87
2018-12-18T19:24:39.227Z,101603.63
2018-12-18T19:27:58.566Z,101597.72
2018-12-18T19:31:05.207Z,101589.69
2018-12-18T19:34:11.942Z,101593.09
2018-12-18T19:37:18.601Z,101582.07
2018-12-18T19:40:25.310Z,101571.48
2018-12-18T19:43:50.351Z,101562.20
2018-12-18T19:46:57.089Z,101560.50
2018-12-18T19:50:04.262Z,101557.12
2018-12-18T19:53:10.988Z,101553.72
2018-12-18T19:56:30.249Z,101549.09
2018-12-18T19:59:36.975Z,101541.87
2018-12-18T20:02:43.617Z,101544.49
2018-12-18T20:05:50.369Z,101553.02
2018-12-18T20:08:57.310Z,101553.45
2018-12-18T20:12:04.443Z,101545.37
2018-12-18T20:15:11.311Z,101541.95
2018-12-18T20:18:26.667Z,101535.23
2018-12-18T20:21:33.370Z,101528.46
2018-12-18T20:24:40.096Z,101523.39
2018-12-18T20:27:59.330Z,101518.80
2018-12-18T20:31:06.178Z,101511.61
2018-12-18T20:34:12.813Z,101505.25
2018-12-18T20:37:19.479Z,101500.54
2018-12-18T20:40:26.146Z,101487.48
2018-12-18T20:43:32.883Z,101495.91
2018-12-18T20:46:52.117Z,101484.92
2018-12-18T20:49:58.995Z,101470.09
2018-12-18T20:53:05.836Z,101468.44
2018-12-18T20:56:13.087Z,101459.63
2018-12-18T20:59:32.035Z,101455.80
2018-12-18T21:02:38.812Z,101444.83
2018-12-18T21:05:45.546Z,101446.13
2018-12-18T21:09:07.958Z,101447.79
2018-12-18T21:12:23.349Z,101442.30
2018-12-18T21:15:31.528Z,101434.72
2018-12-18T21:18:40.878Z,101433.02
2018-12-18T21:21:48.411Z,101433.00
2018-12-18T21:25:08.997Z,101425.48
2018-12-18T21:28:17.310Z,101427.16
2018-12-18T21:31:23.405Z,101423.78
2018-12-18T21:34:30.248Z,101412.37
2018-12-18T21:37:36.987Z,101398.06
2018-12-18T21:40:52.602Z,101400.20
2018-12-18T21:44:09.051Z,101397.20
2018-12-18T21:47:24.285Z,101399.74
2018-12-18T21:50:40.150Z,101398.48
2018-12-18T21:53:46.133Z,101406.16
2018-12-18T21:57:05.302Z,101398.95
2018-12-18T22:00:13.507Z,101400.65
2018-12-18T22:03:42.661Z,101411.22
2018-12-18T22:06:49.244Z,101404.48
2018-12-18T22:09:55.974Z,101407.88
2018-12-18T22:13:02.644Z,101405.77
2018-12-18T22:16:22.485Z,101391.37
2018-12-18T22:19:30.238Z,101384.60
2018-12-18T22:22:49.078Z,101371.95
2018-12-18T22:25:55.745Z,101378.27
2018-12-18T22:29:02.606Z,101370.30
2018-12-18T22:32:23.775Z,101365.22
2018-12-18T22:35:37.285Z,101362.25
2018-12-18T22:38:45.503Z,101368.15
2018-12-18T22:42:07.818Z,101372.41
2018-12-18T22:45:14.462Z,101356.34
2018-12-18T22:48:21.244Z,101358.89
2018-12-18T22:51:27.882Z,101350.05
2018-12-18T22:54:40.851Z,101343.70
2018-12-18T22:57:58.888Z,101332.72
2018-12-18T23:01:23.413Z,101329.36
2018-12-18T23:04:45.533Z,101326.38
2018-12-18T23:07:58.055Z,101318.39
2018-12-18T23:11:06.497Z,101309.53
2018-12-18T23:14:36.654Z,101296.41
2018-12-18T23:17:49.472Z,101287.99
2018-12-18T23:20:56.717Z,101285.88
2018-12-18T23:24:15.899Z,101275.72
2018-12-18T23:27:22.918Z,101266.88
2018-12-18T23:30:29.581Z,101259.30
2018-12-18T23:34:01.324Z,101261.80
2018-12-18T23:37:30.603Z,101251.22
2018-12-18T23:40:51.582Z,101257.61
2018-12-18T23:43:59.471Z,101241.15
2018-12-18T23:47:18.455Z,101235.17
2018-12-18T23:50:29.346Z,101229.75
2018-12-18T23:53:36.059Z,101221.73
2018-12-18T23:56:42.743Z,101217.96
2018-12-18T23:59:49.461Z,101213.67
